createdAt,value
2019-01-18T00:02:25.815Z,100240.50
2019-01-18T00:04:57.848Z,100247.45
2019-01-18T00:07:29.516Z,100253.57
2019-01-18T00:10:01.169Z,100255.37
2019-01-18T00:12:32.766Z,100255.80
2019-01-18T00:15:05.713Z,100256.26
2019-01-18T00:17:37.317Z,100253.23
2019-01-18T00:20:09.939Z,100258.01
2019-01-18T00:22:41.558Z,100268.86
2019-01-18T00:25:13.275Z,100265.80
2019-01-18T00:27:44.943Z,100268.38
2019-01-18T00:30:18.633Z,100274.41
2019-01-18T00:32:51.195Z,100286.09
2019-01-18T00:35:25.920Z,100288.20
2019-01-18T00:37:58.613Z,100292.08
2019-01-18T00:40:31.447Z,100286.05
2019-01-18T00:43:06.369Z,100295.61
2019-01-18T00:45:41.553Z,100294.30
2019-01-18T00:48:15.748Z,100302.45
2019-01-18T00:50:49.891Z,100311.45
2019-01-18T00:53:23.246Z,100313.99
2019-01-18T00:55:56.381Z,100314.41
2019-01-18T00:58:30.475Z,100321.27
2019-01-18T01:01:06.015Z,100326.88
2019-01-18T01:03:40.724Z,100335.03
2019-01-18T01:06:15.829Z,100335.89
2019-01-18T01:08:51.335Z,100338.05
2019-01-18T01:11:30.433Z,100339.78
2019-01-18T01:14:02.292Z,100336.31
2019-01-18T01:16:37.442Z,100339.33
2019-01-18T01:19:10.719Z,100336.76
2019-01-18T01:21:43.920Z,100348.41
2019-01-18T01:24:16.768Z,100348.85
2019-01-18T01:26:51.477Z,100354.06
2019-01-18T01:29:34.573Z,100358.88
2019-01-18T01:32:07.860Z,100362.36
2019-01-18T01:34:42.049Z,100366.70
2019-01-18T01:37:22.953Z,100373.67
2019-01-18T01:40:04.323Z,100371.88
2019-01-18T01:42:37.068Z,100380.97
2019-01-18T01:45:12.568Z,100387.08
2019-01-18T01:47:46.805Z,100389.20
2019-01-18T01:50:32.347Z,100395.77
2019-01-18T01:53:07.086Z,100400.59
2019-01-18T01:55:41.049Z,100400.70
2019-01-18T01:58:17.083Z,100395.53
2019-01-18T02:00:50.720Z,100402.50
2019-01-18T02:03:23.681Z,100408.12
2019-01-18T02:05:57.655Z,100404.68
2019-01-18T02:08:30.846Z,100406.84
2019-01-18T02:11:04.429Z,100410.36
2019-01-18T02:13:37.816Z,100413.45
2019-01-18T02:16:13.517Z,100410.86
2019-01-18T02:18:50.607Z,100414.75
2019-01-18T02:21:22.380Z,100419.95
2019-01-18T02:23:54.071Z,100418.64
2019-01-18T02:26:26.856Z,100427.67
2019-01-18T02:28:58.583Z,100420.75
2019-01-18T02:31:30.294Z,100425.08
2019-01-18T02:34:01.913Z,100422.54
2019-01-18T02:36:34.212Z,100428.17
2019-01-18T02:39:07.920Z,100426.06
2019-01-18T02:41:39.967Z,100429.08
2019-01-18T02:44:12.304Z,100433.41
2019-01-18T02:46:43.952Z,100430.37
2019-01-18T02:49:15.596Z,100426.92
2019-01-18T02:51:47.216Z,100431.27
2019-01-18T02:54:19.527Z,100435.95
2019-01-18T02:56:51.945Z,100438.12
2019-01-18T02:59:23.536Z,100441.56
2019-01-18T03:01:56.413Z,100438.49
2019-01-18T03:04:29.566Z,100448.43
2019-01-18T03:07:01.232Z,100453.19
2019-01-18T03:09:32.821Z,100451.45
2019-01-18T03:12:05.140Z,100450.53
2019-01-18T03:14:36.721Z,100448.80
2019-01-18T03:17:09.768Z,100453.55
2019-01-18T03:19:41.388Z,100453.06
2019-01-18T03:22:13.729Z,100462.12
2019-01-18T03:24:45.634Z,100462.56
2019-01-18T03:27:17.915Z,100457.39
2019-01-18T03:29:51.320Z,100463.02
2019-01-18T03:32:22.978Z,100460.03
2019-01-18T03:34:54.675Z,100466.11
2019-01-18T03:37:26.359Z,100470.05
2019-01-18T03:39:57.969Z,100467.50
2019-01-18T03:42:30.592Z,100473.56
2019-01-18T03:45:02.243Z,100476.59
2019-01-18T03:47:34.087Z,100486.59
2019-01-18T03:50:07.308Z,100484.00
2019-01-18T03:52:39.149Z,100487.02
2019-01-18T03:55:11.557Z,100489.62
2019-01-18T03:57:43.175Z,100495.23
2019-01-18T04:00:26.221Z,100489.58
2019-01-18T04:02:55.772Z,100496.49
2019-01-18T04:05:28.669Z,100500.38
2019-01-18T04:08:00.304Z,100498.66
2019-01-18T04:10:32.020Z,100500.38
2019-01-18T04:13:05.928Z,100502.12
2019-01-18T04:15:46.170Z,100502.55
2019-01-18T04:18:18.123Z,100500.86
2019-01-18T04:20:49.756Z,100501.30
2019-01-18T04:23:21.354Z,100504.71
2019-01-18T04:25:52.982Z,100503.41
2019-01-18T04:28:24.808Z,100506.43
2019-01-18T04:30:57.100Z,100512.92
2019-01-18T04:33:28.720Z,100525.03
2019-01-18T04:36:00.360Z,100519.03
2019-01-18T04:38:32.888Z,100517.30
2019-01-18T04:41:04.676Z,100523.35
2019-01-18T04:43:36.248Z,100524.22
2019-01-18T04:46:09.181Z,100519.03
2019-01-18T04:48:41.061Z,100528.11
2019-01-18T04:51:12.687Z,100531.58
2019-01-18T04:53:44.314Z,100535.50
2019-01-18T04:56:17.457Z,100538.54
2019-01-18T04:58:49.165Z,100545.46
2019-01-18T05:01:21.505Z,100557.12
2019-01-18T05:03:53.165Z,100558.42
2019-01-18T05:06:24.873Z,100563.56
2019-01-18T05:08:56.510Z,100574.38
2019-01-18T05:11:28.326Z,100570.91
2019-01-18T05:14:00.019Z,100576.96
2019-01-18T05:16:32.412Z,100575.23
2019-01-18T05:19:04.070Z,100580.42
2019-01-18T05:21:35.744Z,100582.98
2019-01-18T05:24:07.362Z,100584.70
2019-01-18T05:26:40.729Z,100582.11
2019-01-18T05:29:13.780Z,100584.27
2019-01-18T05:31:47.064Z,100589.03
2019-01-18T05:34:18.723Z,100597.23
2019-01-18T05:36:50.343Z,100602.38
2019-01-18T05:39:21.981Z,100607.13
2019-01-18T05:41:53.727Z,100611.41
2019-01-18T05:44:30.485Z,100619.20
2019-01-18T05:47:07.618Z,100621.31
2019-01-18T05:49:39.855Z,100622.19
2019-01-18T05:52:14.126Z,100626.52
2019-01-18T05:54:46.579Z,100635.16
2019-01-18T05:57:24.758Z,100631.70
2019-01-18T05:59:56.415Z,100633.47
2019-01-18T06:02:31.763Z,100636.03
2019-01-18T06:05:07.796Z,100639.48
2019-01-18T06:07:52.565Z,100642.08
2019-01-18T06:10:23.994Z,100646.40
2019-01-18T06:12:55.673Z,100649.00
2019-01-18T06:15:27.325Z,100647.27
2019-01-18T06:18:05.538Z,100643.85
2019-01-18T06:20:37.450Z,100648.18
2019-01-18T06:23:10.881Z,100651.22
2019-01-18T06:26:01.940Z,100651.25
2019-01-18T06:28:38.381Z,100654.28
2019-01-18T06:31:11.832Z,100659.43
2019-01-18T06:33:48.132Z,100668.52
2019-01-18T06:36:23.147Z,100673.27
2019-01-18T06:38:55.937Z,100662.06
2019-01-18T06:41:50.122Z,100666.83
2019-01-18T06:44:22.084Z,100668.56
2019-01-18T06:46:54.940Z,100670.76
2019-01-18T06:49:26.554Z,100675.52
2019-01-18T06:51:58.185Z,100684.16
2019-01-18T06:54:30.454Z,100679.80
2019-01-18T06:57:02.101Z,100685.42
2019-01-18T06:59:34.333Z,100683.25
2019-01-18T07:02:06.221Z,100684.52
2019-01-18T07:04:41.483Z,100688.41
2019-01-18T07:07:11.223Z,100693.17
2019-01-18T07:09:42.880Z,100691.04
2019-01-18T07:12:14.526Z,100696.62
2019-01-18T07:14:46.880Z,100700.52
2019-01-18T07:17:18.510Z,100702.67
2019-01-18T07:19:50.319Z,100711.76
2019-01-18T07:22:22.070Z,100711.33
2019-01-18T07:24:54.358Z,100718.69
2019-01-18T07:27:27.020Z,100723.44
2019-01-18T07:29:58.653Z,100723.88
2019-01-18T07:32:30.730Z,100728.63
2019-01-18T07:35:02.360Z,100731.22
2019-01-18T07:37:34.026Z,100733.82
2019-01-18T07:40:06.308Z,100741.17
2019-01-18T07:42:37.966Z,100738.58
2019-01-18T07:45:15.578Z,100736.84
2019-01-18T07:47:48.054Z,100745.93
2019-01-18T07:50:20.364Z,100748.95
2019-01-18T07:52:52.257Z,100752.85
2019-01-18T07:55:24.830Z,100753.28
2019-01-18T07:57:56.609Z,100757.22
2019-01-18T08:00:30.397Z,100756.38
2019-01-18T08:03:02.675Z,100758.98
2019-01-18T08:05:34.621Z,100762.87
2019-01-18T08:08:06.721Z,100770.69
2019-01-18T08:10:39.588Z,100771.12
2019-01-18T08:13:11.355Z,100775.02
2019-01-18T08:15:43.012Z,100774.19
2019-01-18T08:18:15.380Z,100773.75
2019-01-18T08:20:47.024Z,100780.67
2019-01-18T08:23:18.864Z,100786.72
2019-01-18T08:25:50.557Z,100790.61
2019-01-18T08:28:22.206Z,100791.91
2019-01-18T08:30:53.839Z,100798.40
2019-01-18T08:33:26.134Z,100797.97
2019-01-18T08:35:57.759Z,100803.16
2019-01-18T08:38:29.432Z,100810.47
2019-01-18T08:41:01.085Z,100804.42
2019-01-18T08:43:32.720Z,100805.72
2019-01-18T08:46:08.523Z,100807.88
2019-01-18T08:48:40.896Z,100815.66
2019-01-18T08:51:12.566Z,100816.13
2019-01-18T08:53:44.274Z,100806.58
2019-01-18T08:56:16.836Z,100813.50
2019-01-18T08:58:48.748Z,100813.44
2019-01-18T09:01:20.485Z,100815.57
2019-01-18T09:03:52.142Z,100821.16
2019-01-18T09:06:24.335Z,100821.56
2019-01-18T09:08:56.068Z,100821.95
2019-01-18T09:11:27.786Z,100825.42
2019-01-18T09:13:59.780Z,100820.23
2019-01-18T09:16:52.410Z,100818.93
2019-01-18T09:19:28.587Z,100815.06
2019-01-18T09:22:03.222Z,100817.27
2019-01-18T09:24:38.605Z,100822.45
2019-01-18T09:27:10.457Z,100824.63
2019-01-18T09:29:46.549Z,100827.65
2019-01-18T09:32:18.405Z,100834.54
2019-01-18T09:34:50.060Z,100837.10
2019-01-18T09:37:22.446Z,100839.23
2019-01-18T09:39:54.130Z,100842.69
2019-01-18T09:42:27.132Z,100838.77
2019-01-18T09:44:58.798Z,100843.92
2019-01-18T09:47:30.460Z,100855.13
2019-01-18T09:50:02.136Z,100848.61
2019-01-18T09:52:40.586Z,100848.56
2019-01-18T09:55:14.242Z,100853.75
2019-01-18T09:57:45.962Z,100845.49
2019-01-18T10:00:24.515Z,100842.89
2019-01-18T10:02:56.366Z,100845.48
2019-01-18T10:05:28.204Z,100844.16
2019-01-18T10:08:00.479Z,100841.08
2019-01-18T10:10:32.280Z,100844.06
2019-01-18T10:13:04.162Z,100851.77
2019-01-18T10:15:42.691Z,100856.05
2019-01-18T10:18:14.872Z,100849.45
2019-01-18T10:20:46.603Z,100846.37
2019-01-18T10:23:19.170Z,100851.52
2019-01-18T10:25:51.481Z,100850.17
2019-01-18T10:28:24.760Z,100850.56
2019-01-18T10:30:56.427Z,100845.79
2019-01-18T10:33:28.811Z,100848.82
2019-01-18T10:36:00.432Z,100850.98
2019-01-18T10:38:33.749Z,100853.96
2019-01-18T10:41:05.544Z,100848.72
2019-01-18T10:43:37.207Z,100853.90
2019-01-18T10:46:08.817Z,100838.69
2019-01-18T10:48:40.517Z,100849.09
2019-01-18T10:51:12.162Z,100846.11
2019-01-18T10:53:44.657Z,100849.59
2019-01-18T10:56:16.953Z,100848.33
2019-01-18T10:58:48.593Z,100840.58
2019-01-18T11:01:20.178Z,100854.89
2019-01-18T11:03:52.038Z,100848.44
2019-01-18T11:06:23.675Z,100840.21
2019-01-18T11:08:56.024Z,100842.38
2019-01-18T11:11:27.665Z,100845.36
2019-01-18T11:13:59.383Z,100844.92
2019-01-18T11:16:31.024Z,100838.84
2019-01-18T11:19:02.689Z,100838.80
2019-01-18T11:21:34.895Z,100839.61
2019-01-18T11:24:07.229Z,100833.92
2019-01-18T11:26:38.989Z,100833.86
2019-01-18T11:29:10.680Z,100827.34
2019-01-18T11:31:42.298Z,100828.16
2019-01-18T11:34:13.960Z,100825.94
2019-01-18T11:36:45.585Z,100822.84
2019-01-18T11:39:17.870Z,100817.94
2019-01-18T11:41:49.514Z,100819.16
2019-01-18T11:44:21.212Z,100819.45
2019-01-18T11:46:52.964Z,100809.75
2019-01-18T11:49:24.644Z,100808.72
2019-01-18T11:51:56.267Z,100806.81
2019-01-18T11:54:29.296Z,100808.83
2019-01-18T11:57:00.969Z,100807.00
2019-01-18T11:59:32.708Z,100801.27
2019-01-18T12:02:04.588Z,100800.70
2019-01-18T12:04:36.249Z,100801.91
2019-01-18T12:07:08.108Z,100797.90
2019-01-18T12:09:39.839Z,100796.06
2019-01-18T12:12:12.144Z,100793.81
2019-01-18T12:14:43.859Z,100791.12
2019-01-18T12:17:15.487Z,100790.64
2019-01-18T12:19:47.318Z,100785.82
2019-01-18T12:22:19.714Z,100787.17
2019-01-18T12:24:51.436Z,100779.80
2019-01-18T12:27:23.801Z,100771.55
2019-01-18T12:29:55.426Z,100773.65
2019-01-18T12:32:28.855Z,100780.57
2019-01-18T12:35:00.643Z,100775.35
2019-01-18T12:37:33.287Z,100777.11
2019-01-18T12:40:05.285Z,100773.20
2019-01-18T12:42:38.667Z,100777.11
2019-01-18T12:45:15.357Z,100779.35
2019-01-18T12:47:47.049Z,100777.66
2019-01-18T12:50:41.030Z,100777.38
2019-01-18T12:53:12.672Z,100781.81
2019-01-18T12:55:45.084Z,100778.84
2019-01-18T12:58:17.232Z,100777.54
2019-01-18T13:00:48.919Z,100781.83
2019-01-18T13:03:20.850Z,100784.85
2019-01-18T13:05:54.350Z,100779.67
2019-01-18T13:08:26.160Z,100781.92
2019-01-18T13:10:59.335Z,100778.53
2019-01-18T13:13:30.988Z,100779.91
2019-01-18T13:16:30.258Z,100778.63
2019-01-18T13:19:09.768Z,100779.48
2019-01-18T13:21:41.462Z,100779.91
2019-01-18T13:24:13.177Z,100776.81
2019-01-18T13:26:45.124Z,100774.62
2019-01-18T13:29:16.924Z,100772.42
2019-01-18T13:31:48.554Z,100779.73
2019-01-18T13:34:27.296Z,100781.40
2019-01-18T13:37:05.371Z,100781.38
2019-01-18T13:39:41.834Z,100782.23
2019-01-18T13:42:19.416Z,100778.71
2019-01-18T13:44:52.774Z,100777.47
2019-01-18T13:47:30.850Z,100782.25
2019-01-18T13:50:13.760Z,100776.55
2019-01-18T13:52:45.891Z,100772.17
2019-01-18T13:55:25.743Z,100778.67
2019-01-18T13:57:59.267Z,100772.58
2019-01-18T14:00:35.016Z,100782.59
2019-01-18T14:03:15.604Z,100781.22
2019-01-18T14:05:55.608Z,100778.59
2019-01-18T14:08:35.738Z,100788.94
2019-01-18T14:11:16.592Z,100778.95
2019-01-18T14:13:54.547Z,100778.14
2019-01-18T14:16:26.816Z,100783.36
2019-01-18T14:18:58.602Z,100784.25
2019-01-18T14:21:31.314Z,100785.97
2019-01-18T14:24:06.675Z,100783.38
2019-01-18T14:26:43.262Z,100786.87
2019-01-18T14:29:20.532Z,100791.22
2019-01-18T14:31:57.114Z,100788.22
2019-01-18T14:34:35.323Z,100789.97
2019-01-18T14:37:11.675Z,100790.41
2019-01-18T14:39:43.538Z,100788.25
2019-01-18T14:42:15.913Z,100790.44
2019-01-18T14:44:47.582Z,100793.05
2019-01-18T14:47:19.902Z,100795.21
2019-01-18T14:49:51.604Z,100793.91
2019-01-18T14:52:23.325Z,100793.89
2019-01-18T14:54:54.940Z,100792.59
2019-01-18T14:57:26.608Z,100794.84
2019-01-18T14:59:58.292Z,100795.31
2019-01-18T15:02:30.827Z,100791.06
2019-01-18T15:05:02.459Z,100794.61
2019-01-18T15:07:34.139Z,100789.91
2019-01-18T15:10:07.775Z,100789.13
2019-01-18T15:12:39.467Z,100788.33
2019-01-18T15:15:14.069Z,100790.95
2019-01-18T15:17:46.721Z,100790.09
2019-01-18T15:20:22.917Z,100793.56
2019-01-18T15:22:54.740Z,100788.36
2019-01-18T15:25:27.064Z,100789.27
2019-01-18T15:27:58.759Z,100792.33
2019-01-18T15:30:31.797Z,100789.73
2019-01-18T15:33:09.148Z,100784.58
2019-01-18T15:35:40.490Z,100791.54
2019-01-18T15:38:13.333Z,100788.95
2019-01-18T15:40:49.861Z,100787.65
2019-01-18T15:43:23.311Z,100782.92
2019-01-18T15:45:55.040Z,100790.77
2019-01-18T15:48:27.354Z,100787.73
2019-01-18T15:50:59.048Z,100788.66
2019-01-18T15:53:31.570Z,100786.07
2019-01-18T15:56:04.253Z,100789.55
2019-01-18T15:58:36.078Z,100790.46
2019-01-18T16:01:07.866Z,100786.20
2019-01-18T16:03:41.513Z,100794.03
2019-01-18T16:06:13.181Z,100787.55
2019-01-18T16:08:44.909Z,100788.50
2019-01-18T16:11:18.911Z,100789.01
2019-01-18T16:13:51.008Z,100787.35
2019-01-18T16:16:54.381Z,100792.63
2019-01-18T16:19:27.065Z,100792.41
2019-01-18T16:21:58.809Z,100787.41
2019-01-18T16:24:31.311Z,100790.52
2019-01-18T16:27:02.960Z,100795.80
2019-01-18T16:29:38.641Z,100788.95
2019-01-18T16:32:10.466Z,100785.59
2019-01-18T16:34:43.156Z,100783.94
2019-01-18T16:37:15.052Z,100783.61
2019-01-18T16:39:46.778Z,100785.42
2019-01-18T16:42:20.642Z,100780.67
2019-01-18T16:44:54.253Z,100783.76
2019-01-18T16:47:26.955Z,100781.22
2019-01-18T16:49:59.378Z,100774.78
2019-01-18T16:52:31.157Z,100773.53
2019-01-18T16:55:03.016Z,100767.08
2019-01-18T16:57:34.795Z,100777.06
2019-01-18T17:00:14.971Z,100771.48
2019-01-18T17:02:46.893Z,100772.36
2019-01-18T17:05:18.600Z,100771.11
2019-01-18T17:07:50.767Z,100772.84
2019-01-18T17:10:22.697Z,100773.75
2019-01-18T17:12:54.494Z,100768.99
2019-01-18T17:15:26.383Z,100772.47
2019-01-18T17:17:58.282Z,100774.67
2019-01-18T17:20:33.626Z,100765.59
2019-01-18T17:23:05.845Z,100770.79
2019-01-18T17:25:38.043Z,100769.53
2019-01-18T17:28:09.846Z,100766.55
2019-01-18T17:30:41.575Z,100768.72
2019-01-18T17:33:13.331Z,100765.69
2019-01-18T17:36:29.939Z,100759.63
2019-01-18T17:39:44.958Z,100758.80
2019-01-18T17:43:05.694Z,100756.69
2019-01-18T17:46:42.059Z,100757.13
2019-01-18T17:50:06.640Z,100759.39
2019-01-18T17:53:44.339Z,100761.64
2019-01-18T17:56:59.365Z,100758.67
2019-01-18T18:00:28.201Z,100759.58
2019-01-18T18:03:36.555Z,100765.23
2019-01-18T18:06:55.360Z,100763.12
2019-01-18T18:10:05.372Z,100763.16
2019-01-18T18:13:49.851Z,100766.66
2019-01-18T18:17:04.474Z,100769.72
2019-01-18T18:20:40.950Z,100772.36
2019-01-18T18:23:52.244Z,100765.90
2019-01-18T18:27:33.413Z,100768.09
2019-01-18T18:30:47.733Z,100768.13
2019-01-18T18:34:34.756Z,100760.38
2019-01-18T18:38:05.680Z,100751.77
2019-01-18T18:41:41.827Z,100757.81
2019-01-18T18:45:15.828Z,100762.59
2019-01-18T18:48:20.305Z,100762.68
2019-01-18T18:51:35.669Z,100765.80
2019-01-18T18:55:04.876Z,100762.84
2019-01-18T18:58:55.783Z,100757.70
2019-01-18T19:02:42.972Z,100753.42
2019-01-18T19:06:26.195Z,100756.91
2019-01-18T19:10:01.060Z,100756.06
2019-01-18T19:13:30.956Z,100753.45
2019-01-18T19:16:31.349Z,100749.56
2019-01-18T19:19:59.318Z,100746.58
2019-01-18T19:23:34.757Z,100746.15
2019-01-18T19:26:40.845Z,100742.69
2019-01-18T19:30:06.305Z,100742.69
2019-01-18T19:33:23.881Z,100740.95
2019-01-18T19:36:32.744Z,100744.41
2019-01-18T19:39:51.720Z,100737.52
2019-01-18T19:43:50.966Z,100738.81
2019-01-18T19:47:16.294Z,100742.23
2019-01-18T19:50:43.906Z,100743.97
2019-01-18T19:53:48.010Z,100740.52
2019-01-18T19:56:57.210Z,100731.03
2019-01-18T20:00:29.487Z,100732.75
2019-01-18T20:03:54.031Z,100730.16
2019-01-18T20:07:13.219Z,100728.46
2019-01-18T20:10:44.713Z,100731.03
2019-01-18T20:13:57.561Z,100733.21
2019-01-18T20:17:07.101Z,100731.91
2019-01-18T20:20:29.377Z,100725.44
2019-01-18T20:23:39.965Z,100730.59
2019-01-18T20:27:05.270Z,100727.15
2019-01-18T20:30:30.515Z,100725.42
2019-01-18T20:34:21.476Z,100733.20
2019-01-18T20:37:47.201Z,100729.73
2019-01-18T20:41:03.933Z,100731.45
2019-01-18T20:44:23.034Z,100724.58
2019-01-18T20:47:58.078Z,100720.67
2019-01-18T20:51:41.507Z,100723.70
2019-01-18T20:55:21.300Z,100725.00
2019-01-18T20:58:55.492Z,100731.45
2019-01-18T21:02:05.163Z,100727.16
2019-01-18T21:05:40.286Z,100727.16
2019-01-18T21:08:55.870Z,100732.31
2019-01-18T21:12:54.826Z,100731.45
2019-01-18T21:16:41.569Z,100728.86
2019-01-18T21:20:44.735Z,100735.34
2019-01-18T21:24:11.740Z,100726.28
2019-01-18T21:27:36.798Z,100726.71
2019-01-18T21:31:37.278Z,100717.67
2019-01-18T21:35:20.746Z,100723.70
2019-01-18T21:38:47.689Z,100718.52
2019-01-18T21:42:14.504Z,100722.39
2019-01-18T21:45:08.500Z,100720.25
2019-01-18T21:47:37.848Z,100720.69
2019-01-18T21:51:11.741Z,100715.52
2019-01-18T21:54:06.361Z,100717.22
2019-01-18T21:57:22.841Z,100715.52
2019-01-18T22:00:44.659Z,100719.41
2019-01-18T22:03:59.130Z,100723.28
2019-01-18T22:07:27.470Z,100725.42
2019-01-18T22:10:34.886Z,100721.98
2019-01-18T22:14:02.109Z,100718.10
2019-01-18T22:17:38.370Z,100725.84
2019-01-18T22:21:03.047Z,100720.69
2019-01-18T22:24:16.098Z,100719.83
2019-01-18T22:27:57.301Z,100723.71
2019-01-18T22:31:15.631Z,100728.45
2019-01-18T22:34:23.942Z,100734.90
2019-01-18T22:37:47.447Z,100726.27
2019-01-18T22:41:21.638Z,100730.16
2019-01-18T22:45:03.381Z,100731.44
2019-01-18T22:48:17.536Z,100736.62
2019-01-18T22:51:57.843Z,100731.86
2019-01-18T22:55:34.092Z,100734.45
2019-01-18T22:59:03.750Z,100737.86
2019-01-18T23:02:09.040Z,100733.95
2019-01-18T23:05:38.613Z,100728.74
2019-01-18T23:09:02.679Z,100731.75
2019-01-18T23:12:33.155Z,100736.92
2019-01-18T23:16:06.263Z,100732.64
2019-01-18T23:18:54.273Z,100742.11
2019-01-18T23:22:15.530Z,100736.06
2019-01-18T23:25:01.055Z,100728.27
2019-01-18T23:28:17.498Z,100734.25
2019-01-18T23:31:09.442Z,100732.50
2019-01-18T23:34:36.075Z,100726.47
2019-01-18T23:37:29.319Z,100728.58
2019-01-18T23:40:49.858Z,100728.97
2019-01-18T23:44:04.443Z,100727.20
2019-01-18T23:47:17.880Z,100723.30
2019-01-18T23:50:52.839Z,100730.17
2019-01-18T23:53:58.023Z,100722.89
2019-01-18T23:57:28.957Z,100728.91
